Portada
METAR-TAF:

METAR-TAF

Aeropuertos :

Aeropuerto de Montpellier-Méditerranée

Montpellier, Francia

latitud: 43-35N, longitud: 003-58E, altitud: 5 m

Observación

El informe se hizo hace 44 minutos, a las 22:30 UTC
Viento 7 kt del sureste
Temperatura 13°C
Humedad 77%
Presión 1018 hPa
Visibilidad 10 km o más
Nubes dispersas a una altura de 1900 ft
Cielo nuboso a una altura de 2800 ft
Cielo cubierto a una altura de 3500 ft

METAR: LFMT 312230Z AUTO 14007KT 9999 SCT019 BKN028 OVC035 13/09 Q1018 NOSIG

Hora: 01:14 (23:14 UTC)

Pronóstico

El informe se hizo hace 3 horas y 14 minutos, a las 20:00 UTC
Pronóstico válido del 31 a las 21 UTC al 01 a las 21 UTC
Viento 8 kt del este-sureste
Visibilidad 10 km o más
Nubes dispersas a una altura de 1500 ft
Cielo nuboso a una altura de 3000 ft

TAF: LFMT 312000Z 3121/0121 12008KT 9999 SCT015 BKN030

Observaciones y pronósticos meteorológicos de más de 4000 aeropuertos (mensajes METAR y TAF).

Los puntos amarillos y rojos representan las estaciones disponibles.

Ponga el ratón en el punto deseado para ver el nombre de la estación.

Haga clic para ver las observaciones y los pronósticos meteorológicos.

Para cambiar el mapa : haga clic en los botones verdes con una cruz de color negro para hacer un zoom, en el botón verde con un guión para alejar o en las flechas verdes para mapas adyacentes.


METAR-TAF: